Detall de PIREP

Printer-friendly versionPDF version

[2012/03/30 09:30:00]
Flight IATA:CT1005
Pilot Number:011
Company ICAO:CAT
Aircraft Type:F28/A
PAX:85
Departing Airport: EHEH
Destination Airport: EKSB
Alternate Airport:EKCH
Online: VATSIM
Route:TULIP UY12 SPY UN873 JUIST UP729 DOSUR
Flight Level:F290
No Slew and time accel
No pause
Crash detect
Detect pilot in Cockpit between each 30 and 45 minutes
09:30 Zero fuel Weight: 60156 Lbs, Fuel Weight: 10286 Lbs
09:30 VATSIM:EHEH 300855Z AUTO 32011KT 9999 BKN012 OVC015 09/06 Q1022 GRN GRN 31010KT 9999 SCT010 OVC012
09:30 VATSIM:EKSB 300750Z 31020KT 9999 BKN025 07/03 Q1009
09:33 Parking Brakes off
09:50 Take-off
09:50 Take off Weight: 69732 Lbs
09:50 Wind: 313º @ 010 Knots Heading: 031º
09:50 POS N51º 27´ 03´´ E005º 22´ 31´´
09:50 Gear Up: 155 Knots
09:50 Flaps:2 at 155 Knots
09:50 Flaps:1 at 221 Knots
09:51 Flaps:0 at 228 Knots
10:05 Wind:328º@044 Knots Heading: 357º Ground Speed: 369 Knots Altitude 26256 ft
10:07 TOC
10:07 Fuel Weight: 7297 Lb
10:20 Wind:321º@062 Knots Heading: 043º Ground Speed: 433 Knots Altitude 29186 ft
10:31 TOD
10:31 Fuel Weight: 5416 Lb
10:35 Wind:316º@077 Knots Heading: 036º Ground Speed: 391 Knots Altitude 21259 ft
10:49 Flaps:1 at 221 Knots
10:50 Wind:311º@019 Knots Heading: 057º Ground Speed: 215 Knots Altitude 1935 ft
10:50 Flaps:2 at 194 Knots
10:52 Flaps:3 at 183 Knots
10:53 Flaps:4 at 163 Knots
10:53 Gear Down: 163 Knots
10:55 Flaps:5 at 161 Knots
10:57 TouchDown:Rate -129 ft/min Speed: 125 Knots
10:57 VATSIM:EKSB 300950Z 31018KT 9999 SCT025 09/04 Q1008
10:57 Land
10:57 Wind:311º@018 Knots
10:57 Heading: 320º
10:57 Flight Duration: 01:07
10:57 Landing Weight: 64235 Lbs
10:57 POS N54º 57´ 45´´ E009º 47´ 39´´
11:00 Parking brakes on
11:00 Block to Block Duration: 01:27
11:00 FinalFuel: 3963 Lbls
11:00 Spent Fuel: 6322 Lbls
11:00 Flight Length: 168 NM
11:00 TOD Land Length: 52 NM

Exportar CSV

Powered by Drupal - Modified by Danger4k